createdAt,value
2023-01-10T00:01:38.406Z,25.80
2023-01-10T00:03:38.326Z,25.85
2023-01-10T00:05:38.413Z,25.80
2023-01-10T00:07:38.297Z,25.84
2023-01-10T00:09:38.338Z,25.90
2023-01-10T00:11:38.448Z,25.80
2023-01-10T00:13:38.447Z,25.81
2023-01-10T00:15:38.405Z,25.80
2023-01-10T00:17:38.468Z,25.80
2023-01-10T00:19:38.339Z,25.80
2023-01-10T00:21:38.431Z,25.80
2023-01-10T00:23:38.425Z,25.82
2023-01-10T00:25:38.521Z,25.89
2023-01-10T00:27:38.403Z,25.80
2023-01-10T00:29:38.455Z,25.80
2023-01-10T00:31:38.411Z,25.80
2023-01-10T00:33:38.352Z,25.86
2023-01-10T00:35:38.473Z,25.79
2023-01-10T00:37:38.484Z,25.80
2023-01-10T00:39:38.335Z,25.80
2023-01-10T00:41:38.370Z,25.88
2023-01-10T00:43:38.397Z,25.80
2023-01-10T00:45:38.383Z,25.82
2023-01-10T00:47:38.388Z,25.80
2023-01-10T00:49:38.434Z,25.85
2023-01-10T00:51:38.377Z,25.81
2023-01-10T00:53:38.549Z,25.83
2023-01-10T00:55:38.449Z,25.80
2023-01-10T00:57:38.461Z,25.81
2023-01-10T00:59:38.510Z,25.80
2023-01-10T01:01:38.566Z,25.80
2023-01-10T01:03:38.496Z,25.86
2023-01-10T01:05:38.483Z,25.83
2023-01-10T01:07:38.506Z,25.89
2023-01-10T01:09:38.485Z,25.80
2023-01-10T01:11:38.518Z,25.80
2023-01-10T01:13:38.387Z,25.80
2023-01-10T01:15:38.442Z,25.80
2023-01-10T01:17:38.458Z,25.80
2023-01-10T01:19:38.379Z,25.81
2023-01-10T01:21:38.533Z,25.75
2023-01-10T01:23:38.548Z,25.81
2023-01-10T01:25:38.492Z,25.83
2023-01-10T01:27:38.439Z,25.83
2023-01-10T01:29:43.515Z,25.88
2023-01-10T01:31:38.526Z,25.80
2023-01-10T01:33:38.541Z,25.80
2023-01-10T01:35:38.547Z,25.81
2023-01-10T01:37:38.533Z,25.81
2023-01-10T01:39:38.549Z,25.80
2023-01-10T01:41:38.453Z,25.82
2023-01-10T01:43:38.536Z,25.81
2023-01-10T01:45:38.571Z,25.81
2023-01-10T01:47:38.551Z,25.81
2023-01-10T01:49:38.572Z,25.80
2023-01-10T01:51:38.561Z,25.81
2023-01-10T01:53:38.515Z,25.83
2023-01-10T01:55:38.436Z,25.46
2023-01-10T01:57:38.529Z,25.83
2023-01-10T01:59:38.462Z,25.80
2023-01-10T02:01:38.542Z,25.81
2023-01-10T02:03:38.530Z,25.77
2023-01-10T02:05:38.485Z,25.80
2023-01-10T02:07:38.438Z,25.81
2023-01-10T02:09:38.474Z,25.83
2023-01-10T02:11:38.550Z,25.80
2023-01-10T02:13:38.498Z,25.81
2023-01-10T02:15:38.505Z,25.80
2023-01-10T02:17:38.441Z,25.88
2023-01-10T02:19:38.567Z,25.82
2023-01-10T02:21:38.528Z,25.79
2023-01-10T02:23:38.551Z,25.79
2023-01-10T02:25:38.544Z,25.81
2023-01-10T02:27:38.558Z,25.75
2023-01-10T02:29:38.561Z,25.83
2023-01-10T02:31:38.548Z,25.80
2023-01-10T02:33:38.589Z,25.79
2023-01-10T02:35:38.564Z,25.80
2023-01-10T02:37:38.539Z,25.77
2023-01-10T02:39:38.559Z,25.83
2023-01-10T02:41:38.569Z,25.80
2023-01-10T02:43:38.582Z,25.75
2023-01-10T02:45:38.596Z,25.85
2023-01-10T02:47:38.531Z,25.79
2023-01-10T02:49:38.577Z,25.79
2023-01-10T02:51:38.611Z,25.78
2023-01-10T02:53:38.598Z,25.77
2023-01-10T02:55:38.605Z,25.80
2023-01-10T02:57:38.492Z,25.76
2023-01-10T02:59:38.587Z,25.75
2023-01-10T03:01:38.778Z,25.78
2023-01-10T03:03:38.555Z,25.80
2023-01-10T03:05:38.631Z,25.80
2023-01-10T03:07:38.578Z,25.79
2023-01-10T03:09:38.548Z,25.78
2023-01-10T03:11:38.590Z,25.81
2023-01-10T03:13:38.626Z,25.78
2023-01-10T03:15:38.616Z,25.75
2023-01-10T03:17:38.641Z,25.78
2023-01-10T03:19:38.634Z,25.79
2023-01-10T03:21:38.597Z,25.75
2023-01-10T03:23:38.529Z,25.80
2023-01-10T03:25:38.600Z,25.65
2023-01-10T03:27:38.593Z,25.79
2023-01-10T03:29:38.618Z,25.81
2023-01-10T03:31:38.620Z,25.79
2023-01-10T03:33:38.671Z,25.78
2023-01-10T03:35:38.656Z,25.72
2023-01-10T03:37:38.523Z,25.65
2023-01-10T03:39:38.674Z,25.75
2023-01-10T03:41:38.621Z,25.82
2023-01-10T03:43:38.662Z,25.65
2023-01-10T03:45:38.784Z,25.79
2023-01-10T03:47:38.625Z,25.78
2023-01-10T03:49:38.617Z,25.78
2023-01-10T03:51:38.652Z,25.80
2023-01-10T03:53:38.555Z,25.80
2023-01-10T03:55:38.660Z,25.79
2023-01-10T03:57:38.654Z,25.80
2023-01-10T03:59:38.664Z,25.75
2023-01-10T04:01:38.798Z,25.80
2023-01-10T04:03:38.642Z,25.78
2023-01-10T04:05:38.666Z,25.78
2023-01-10T04:07:38.578Z,25.75
2023-01-10T04:09:38.552Z,25.84
2023-01-10T04:11:38.562Z,25.75
2023-01-10T04:13:38.620Z,25.75
2023-01-10T04:15:38.611Z,25.77
2023-01-10T04:17:38.726Z,25.80
2023-01-10T04:19:38.668Z,25.77
2023-01-10T04:21:38.582Z,25.77
2023-01-10T04:23:38.674Z,25.65
2023-01-10T04:25:38.652Z,25.78
2023-01-10T04:27:38.683Z,25.80
2023-01-10T04:29:38.608Z,25.80
2023-01-10T04:31:38.607Z,25.75
2023-01-10T04:33:38.631Z,25.79
2023-01-10T04:35:38.696Z,25.82
2023-01-10T04:37:38.690Z,25.79
2023-01-10T04:39:38.713Z,25.79
2023-01-10T04:41:38.603Z,25.83
2023-01-10T04:43:38.573Z,25.80
2023-01-10T04:45:38.666Z,25.81
2023-01-10T04:47:38.753Z,25.79
2023-01-10T04:49:38.645Z,25.75
2023-01-10T04:51:38.689Z,25.80
2023-01-10T04:53:38.743Z,25.80
2023-01-10T04:55:38.729Z,25.75
2023-01-10T04:57:38.608Z,25.77
2023-01-10T04:59:38.778Z,25.80
2023-01-10T05:01:38.845Z,25.78
2023-01-10T05:03:38.656Z,25.80
2023-01-10T05:05:38.758Z,25.78
2023-01-10T05:07:38.735Z,25.75
2023-01-10T05:09:38.750Z,25.79
2023-01-10T05:11:38.611Z,25.77
2023-01-10T05:13:38.700Z,25.83
2023-01-10T05:15:38.636Z,25.78
2023-01-10T05:17:38.647Z,25.82
2023-01-10T05:19:38.625Z,25.75
2023-01-10T05:21:38.688Z,25.80
2023-01-10T05:23:38.744Z,25.76
2023-01-10T05:25:38.736Z,25.80
2023-01-10T05:27:38.789Z,25.80
2023-01-10T05:29:38.676Z,25.79
2023-01-10T05:31:38.821Z,25.80
2023-01-10T05:33:38.761Z,25.83
2023-01-10T05:35:38.737Z,25.79
2023-01-10T05:37:38.617Z,25.79
2023-01-10T05:39:38.721Z,25.82
2023-01-10T05:41:38.712Z,25.84
2023-01-10T05:43:38.814Z,25.75
2023-01-10T05:45:38.759Z,25.83
2023-01-10T05:47:38.833Z,25.80
2023-01-10T05:49:38.704Z,25.81
2023-01-10T05:51:38.731Z,25.81
2023-01-10T05:53:38.790Z,25.80
2023-01-10T05:55:38.756Z,25.83
2023-01-10T05:57:38.839Z,25.77
2023-01-10T05:59:38.670Z,25.81
2023-01-10T06:01:38.739Z,25.80
2023-01-10T06:03:38.825Z,25.81
2023-01-10T06:05:38.795Z,25.90
2023-01-10T06:07:38.705Z,25.80
2023-01-10T06:09:38.770Z,25.86
2023-01-10T06:11:38.818Z,25.86
2023-01-10T06:13:38.785Z,25.81
2023-01-10T06:15:38.939Z,25.89
2023-01-10T06:17:38.829Z,25.80
2023-01-10T06:19:38.842Z,25.80
2023-01-10T06:21:38.769Z,25.83
2023-01-10T06:23:38.844Z,25.81
2023-01-10T06:25:38.642Z,25.79
2023-01-10T06:27:38.834Z,25.80
2023-01-10T06:29:38.851Z,25.80
2023-01-10T06:31:39.756Z,25.81
2023-01-10T06:33:38.870Z,25.83
2023-01-10T06:35:38.838Z,25.83
2023-01-10T06:37:38.843Z,25.88
2023-01-10T06:39:38.740Z,25.83
2023-01-10T06:41:38.885Z,25.81
2023-01-10T06:43:38.842Z,25.79
2023-01-10T06:45:38.910Z,25.80
2023-01-10T06:47:38.731Z,25.83
2023-01-10T06:49:38.859Z,25.78
2023-01-10T06:51:38.868Z,25.81
2023-01-10T06:53:38.822Z,24.83
2023-01-10T06:55:38.767Z,25.09
2023-01-10T06:57:38.829Z,25.05
2023-01-10T06:59:38.747Z,24.90
2023-01-10T07:01:39.084Z,24.86
2023-01-10T07:03:38.871Z,24.82
2023-01-10T07:05:38.871Z,24.71
2023-01-10T07:07:38.770Z,24.66
2023-01-10T07:09:38.831Z,24.65
2023-01-10T07:11:38.752Z,24.59
2023-01-10T07:13:38.876Z,24.53
2023-01-10T07:15:38.868Z,24.53
2023-01-10T07:17:38.749Z,24.44
2023-01-10T07:19:38.844Z,24.43
2023-01-10T07:21:38.840Z,24.11
2023-01-10T07:23:38.884Z,24.40
2023-01-10T07:25:38.811Z,24.31
2023-01-10T07:27:38.848Z,24.23
2023-01-10T07:29:38.937Z,24.20
2023-01-10T07:31:38.847Z,24.19
2023-01-10T07:33:38.919Z,24.12
2023-01-10T07:35:38.895Z,24.09
2023-01-10T07:37:38.900Z,24.12
2023-01-10T07:39:38.869Z,24.01
2023-01-10T07:41:38.771Z,23.97
2023-01-10T07:43:38.910Z,23.95
2023-01-10T07:45:38.862Z,23.59
2023-01-10T07:47:38.921Z,23.96
2023-01-10T07:49:38.891Z,23.83
2023-01-10T07:51:38.830Z,23.88
2023-01-10T07:53:38.893Z,23.81
2023-01-10T07:55:38.883Z,23.84
2023-01-10T07:57:38.937Z,23.83
2023-01-10T07:59:38.921Z,23.90
2023-01-10T08:01:38.903Z,23.87
2023-01-10T08:03:38.994Z,23.82
2023-01-10T08:05:38.934Z,23.95
2023-01-10T08:07:38.884Z,23.92
2023-01-10T08:09:38.910Z,23.96
2023-01-10T08:11:41.429Z,24.00
2023-01-10T08:13:38.981Z,23.94
2023-01-10T08:15:38.842Z,23.92
2023-01-10T08:17:38.963Z,23.96
2023-01-10T08:19:38.925Z,24.01
2023-01-10T08:21:38.902Z,24.10
2023-01-10T08:23:38.840Z,24.18
2023-01-10T08:25:39.650Z,24.27
2023-01-10T08:27:38.862Z,24.34
2023-01-10T08:29:38.923Z,24.34
2023-01-10T08:31:38.932Z,24.40
2023-01-10T08:33:38.982Z,24.52
2023-01-10T08:35:38.892Z,24.58
2023-01-10T08:37:38.940Z,24.66
2023-01-10T08:39:38.916Z,24.66
2023-01-10T08:41:38.951Z,24.72
2023-01-10T08:43:38.961Z,24.95
2023-01-10T08:45:38.873Z,24.93
2023-01-10T08:47:39.010Z,25.00
2023-01-10T08:49:38.865Z,25.00
2023-01-10T08:51:38.923Z,25.09
2023-01-10T08:53:38.984Z,25.23
2023-01-10T08:55:38.958Z,25.19
2023-01-10T08:57:38.884Z,25.29
2023-01-10T08:59:38.964Z,25.24
2023-01-10T09:01:39.089Z,25.31
2023-01-10T09:03:38.984Z,25.35
2023-01-10T09:05:38.901Z,25.40
2023-01-10T09:07:38.895Z,25.49
2023-01-10T09:09:38.961Z,25.50
2023-01-10T09:11:41.752Z,25.72
2023-01-10T09:13:39.029Z,25.39
2023-01-10T09:15:38.929Z,25.65
2023-01-10T09:17:38.987Z,25.52
2023-01-10T09:19:38.876Z,25.54
2023-01-10T09:21:38.946Z,25.60
2023-01-10T09:23:38.903Z,25.80
2023-01-10T09:25:38.918Z,25.54
2023-01-10T09:27:39.038Z,25.49
2023-01-10T09:29:39.035Z,25.52
2023-01-10T09:31:39.004Z,25.54
2023-01-10T09:33:46.844Z,25.46
2023-01-10T09:35:38.995Z,25.43
2023-01-10T09:37:38.971Z,25.43
2023-01-10T09:39:39.044Z,25.51
2023-01-10T09:41:38.997Z,25.52
2023-01-10T09:43:39.026Z,25.43
2023-01-10T09:45:38.994Z,25.52
2023-01-10T09:47:38.935Z,25.46
2023-01-10T09:49:39.017Z,25.25
2023-01-10T09:51:38.955Z,25.23
2023-01-10T09:53:39.088Z,25.29
2023-01-10T09:55:39.030Z,25.23
2023-01-10T09:57:38.947Z,25.23
2023-01-10T09:59:39.036Z,25.19
2023-01-10T10:01:39.067Z,25.21
2023-01-10T10:03:41.012Z,25.24
2023-01-10T10:05:39.036Z,25.21
2023-01-10T10:07:39.050Z,25.32
2023-01-10T10:09:38.954Z,25.24
2023-01-10T10:11:39.047Z,25.29
2023-01-10T10:13:39.057Z,25.49
2023-01-10T10:15:39.047Z,25.36
2023-01-10T10:17:39.037Z,25.48
2023-01-10T10:19:38.995Z,25.37
2023-01-10T10:21:39.042Z,25.26
2023-01-10T10:23:39.181Z,25.38
2023-01-10T10:25:39.080Z,25.28
2023-01-10T10:27:39.056Z,25.52
2023-01-10T10:29:39.078Z,25.52
2023-01-10T10:31:39.075Z,25.48
2023-01-10T10:33:39.033Z,25.29
2023-01-10T10:35:39.068Z,25.37
2023-01-10T10:37:39.123Z,25.28
2023-01-10T10:39:39.071Z,25.21
2023-01-10T10:41:38.993Z,25.23
2023-01-10T10:43:38.999Z,25.24
2023-01-10T10:45:39.126Z,25.17
2023-01-10T10:47:39.063Z,25.18
2023-01-10T10:49:39.068Z,25.24
2023-01-10T10:51:39.105Z,25.23
2023-01-10T10:53:39.085Z,25.24
2023-01-10T10:55:39.074Z,25.29
2023-01-10T10:57:43.480Z,25.31
2023-01-10T10:59:39.000Z,25.26
2023-01-10T11:01:39.329Z,25.24
2023-01-10T11:03:39.122Z,25.21
2023-01-10T11:05:39.055Z,25.23
2023-01-10T11:07:39.139Z,25.18
2023-01-10T11:09:41.072Z,25.26
2023-01-10T11:11:39.151Z,25.31
2023-01-10T11:13:39.128Z,25.46
2023-01-10T11:15:39.112Z,25.54
2023-01-10T11:17:39.013Z,25.60
2023-01-10T11:19:39.183Z,25.65
2023-01-10T11:21:39.110Z,25.65
2023-01-10T11:23:39.111Z,25.39
2023-01-10T11:25:39.039Z,25.31
2023-01-10T11:27:39.100Z,25.23
2023-01-10T11:29:39.137Z,25.23
2023-01-10T11:31:39.200Z,25.49
2023-01-10T11:33:39.052Z,25.65
2023-01-10T11:35:39.166Z,25.65
2023-01-10T11:37:39.045Z,25.61
2023-01-10T11:39:39.053Z,25.57
2023-01-10T11:41:39.145Z,25.53
2023-01-10T11:43:39.160Z,25.55
2023-01-10T11:45:39.194Z,25.72
2023-01-10T11:47:45.283Z,25.72
2023-01-10T11:49:39.113Z,25.65
2023-01-10T11:51:39.167Z,25.53
2023-01-10T11:53:39.142Z,25.52
2023-01-10T11:55:39.148Z,25.38
2023-01-10T11:57:39.058Z,25.31
2023-01-10T11:59:39.110Z,25.28
2023-01-10T12:01:39.150Z,25.38
2023-01-10T12:03:39.080Z,25.38
2023-01-10T12:05:39.227Z,25.31
2023-01-10T12:07:39.160Z,25.37
2023-01-10T12:09:39.119Z,25.26
2023-01-10T12:11:39.248Z,25.23
2023-01-10T12:13:39.184Z,25.21
2023-01-10T12:15:39.103Z,25.46
2023-01-10T12:17:39.249Z,26.29
2023-01-10T12:19:39.121Z,25.52
2023-01-10T12:21:39.187Z,25.52
2023-01-10T12:23:39.216Z,25.48
2023-01-10T12:25:39.234Z,25.78
2023-01-10T12:27:39.170Z,25.65
2023-01-10T12:29:39.098Z,25.51
2023-01-10T12:31:39.217Z,25.37
2023-01-10T12:33:39.071Z,25.26
2023-01-10T12:35:39.117Z,25.23
2023-01-10T12:37:39.070Z,25.27
2023-01-10T12:39:39.085Z,25.27
2023-01-10T12:41:39.202Z,25.31
2023-01-10T12:43:39.233Z,25.23
2023-01-10T12:45:39.241Z,25.23
2023-01-10T12:47:39.243Z,25.17
2023-01-10T12:49:39.144Z,25.19
2023-01-10T12:51:39.150Z,25.21
2023-01-10T12:53:39.183Z,25.26
2023-01-10T12:55:39.154Z,25.23
2023-01-10T12:57:39.413Z,25.26
2023-01-10T12:59:39.164Z,25.29
2023-01-10T13:01:39.461Z,25.33
2023-01-10T13:03:39.128Z,25.51
2023-01-10T13:05:39.195Z,25.44
2023-01-10T13:07:39.210Z,25.47
2023-01-10T13:09:39.207Z,25.35
2023-01-10T13:11:39.251Z,25.26
2023-01-10T13:13:39.217Z,25.26
2023-01-10T13:15:39.357Z,25.39
2023-01-10T13:17:39.273Z,25.78
2023-01-10T13:19:39.248Z,25.64
2023-01-10T13:21:39.107Z,25.64
2023-01-10T13:23:39.146Z,25.65
2023-01-10T13:25:39.186Z,25.58
2023-01-10T13:27:39.242Z,25.64
2023-01-10T13:29:39.338Z,25.52
2023-01-10T13:31:39.336Z,25.61
2023-01-10T13:33:39.308Z,25.77
2023-01-10T13:35:39.283Z,25.52
2023-01-10T13:37:39.306Z,25.52
2023-01-10T13:39:39.199Z,25.43
2023-01-10T13:41:39.276Z,25.29
2023-01-10T13:43:39.242Z,25.22
2023-01-10T13:45:39.294Z,25.22
2023-01-10T13:47:39.268Z,25.37
2023-01-10T13:49:39.296Z,25.61
2023-01-10T13:51:39.296Z,25.37
2023-01-10T13:53:39.329Z,25.65
2023-01-10T13:55:39.194Z,25.42
2023-01-10T13:57:39.293Z,25.58
2023-01-10T13:59:39.172Z,25.52
2023-01-10T14:01:39.385Z,25.53
2023-01-10T14:03:39.244Z,25.54
2023-01-10T14:05:39.351Z,25.51
2023-01-10T14:07:39.358Z,25.60
2023-01-10T14:09:39.226Z,25.63
2023-01-10T14:11:39.277Z,25.60
2023-01-10T14:13:39.488Z,25.52
2023-01-10T14:15:39.305Z,25.57
2023-01-10T14:17:39.195Z,25.51
2023-01-10T14:19:39.258Z,25.45
2023-01-10T14:21:39.285Z,25.39
2023-01-10T14:23:39.312Z,25.45
2023-01-10T14:25:39.307Z,25.28
2023-01-10T14:27:39.401Z,25.36
2023-01-10T14:29:39.344Z,25.25
2023-01-10T14:31:39.337Z,25.32
2023-01-10T14:33:39.208Z,25.22
2023-01-10T14:35:39.171Z,25.26
2023-01-10T14:37:39.326Z,25.43
2023-01-10T14:39:39.345Z,25.52
2023-01-10T14:41:39.319Z,25.80
2023-01-10T14:43:39.334Z,25.75
2023-01-10T14:45:39.282Z,25.64
2023-01-10T14:47:39.250Z,25.60
2023-01-10T14:49:39.359Z,25.52
2023-01-10T14:51:39.340Z,25.52
2023-01-10T14:53:39.230Z,25.41
2023-01-10T14:55:39.340Z,25.37
2023-01-10T14:57:39.344Z,25.37
2023-01-10T14:59:39.377Z,25.35
2023-01-10T15:01:39.465Z,25.22
2023-01-10T15:03:39.334Z,25.11
2023-01-10T15:05:39.360Z,25.23
2023-01-10T15:07:39.405Z,25.22
2023-01-10T15:09:39.387Z,25.21
2023-01-10T15:11:39.305Z,25.17
2023-01-10T15:13:39.436Z,25.15
2023-01-10T15:15:39.371Z,25.15
2023-01-10T15:17:39.346Z,25.13
2023-01-10T15:19:39.275Z,25.05
2023-01-10T15:21:39.377Z,24.96
2023-01-10T15:23:39.412Z,25.01
2023-01-10T15:25:39.435Z,24.99
2023-01-10T15:27:39.420Z,24.93
2023-01-10T15:29:39.373Z,24.87
2023-01-10T15:31:39.596Z,24.90
2023-01-10T15:33:39.312Z,24.77
2023-01-10T15:35:39.343Z,24.74
2023-01-10T15:37:39.375Z,24.69
2023-01-10T15:39:39.341Z,24.59
2023-01-10T15:41:39.651Z,24.60
2023-01-10T15:43:39.371Z,24.64
2023-01-10T15:45:39.422Z,24.56
2023-01-10T15:47:39.419Z,24.47
2023-01-10T15:49:39.291Z,24.39
2023-01-10T15:51:39.513Z,24.38
2023-01-10T15:53:39.489Z,24.36
2023-01-10T15:55:39.441Z,24.24
2023-01-10T15:57:39.386Z,24.23
2023-01-10T15:59:39.508Z,24.27
2023-01-10T16:01:39.520Z,24.14
2023-01-10T16:03:39.664Z,24.05
2023-01-10T16:05:39.415Z,24.13
2023-01-10T16:07:39.435Z,24.04
2023-01-10T16:09:39.446Z,24.04
2023-01-10T16:11:39.375Z,27.19
2023-01-10T16:13:39.421Z,25.75
2023-01-10T16:15:39.424Z,25.83
2023-01-10T16:17:39.394Z,25.79
2023-01-10T16:19:39.411Z,25.80
2023-01-10T16:21:39.470Z,25.81
2023-01-10T16:23:39.438Z,25.84
2023-01-10T16:25:39.440Z,25.80
2023-01-10T16:27:39.411Z,25.81
2023-01-10T16:29:39.469Z,25.79
2023-01-10T16:31:39.443Z,25.72
2023-01-10T16:33:39.447Z,25.84
2023-01-10T16:35:39.413Z,25.78
2023-01-10T16:37:39.372Z,25.80
2023-01-10T16:39:39.470Z,25.75
2023-01-10T16:41:39.459Z,25.83
2023-01-10T16:43:39.457Z,25.80
2023-01-10T16:45:39.431Z,25.80
2023-01-10T16:47:39.440Z,25.78
2023-01-10T16:49:39.462Z,25.79
2023-01-10T16:51:39.479Z,25.79
2023-01-10T16:53:39.374Z,25.79
2023-01-10T16:55:39.369Z,25.82
2023-01-10T16:57:39.443Z,25.83
2023-01-10T16:59:39.498Z,25.80
2023-01-10T17:01:39.561Z,25.79
2023-01-10T17:03:39.383Z,25.80
2023-01-10T17:05:39.478Z,25.78
2023-01-10T17:07:39.393Z,25.80
2023-01-10T17:09:39.500Z,25.82
2023-01-10T17:11:39.489Z,25.88
2023-01-10T17:13:39.534Z,25.80
2023-01-10T17:15:39.480Z,25.75
2023-01-10T17:17:39.448Z,25.80
2023-01-10T17:19:39.534Z,25.79
2023-01-10T17:21:39.414Z,25.77
2023-01-10T17:23:39.454Z,25.81
2023-01-10T17:25:39.326Z,25.77
2023-01-10T17:27:39.391Z,25.83
2023-01-10T17:29:39.402Z,25.80
2023-01-10T17:31:39.575Z,25.77
2023-01-10T17:33:39.530Z,25.75
2023-01-10T17:35:39.496Z,25.76
2023-01-10T17:37:39.525Z,25.82
2023-01-10T17:39:39.504Z,25.79
2023-01-10T17:41:39.464Z,25.80
2023-01-10T17:43:39.539Z,25.81
2023-01-10T17:45:39.387Z,25.81
2023-01-10T17:47:39.510Z,25.80
2023-01-10T17:49:39.494Z,25.78
2023-01-10T17:51:39.421Z,25.80
2023-01-10T17:53:39.413Z,25.81
2023-01-10T17:55:39.425Z,25.80
2023-01-10T17:57:39.431Z,25.82
2023-01-10T17:59:39.450Z,25.78
2023-01-10T18:01:39.572Z,25.80
2023-01-10T18:03:39.509Z,25.82
2023-01-10T18:05:39.535Z,25.80
2023-01-10T18:07:39.546Z,25.83
2023-01-10T18:09:39.573Z,25.81
2023-01-10T18:11:39.425Z,25.79
2023-01-10T18:13:39.549Z,25.77
2023-01-10T18:15:39.551Z,25.81
2023-01-10T18:17:39.502Z,25.83
2023-01-10T18:19:39.569Z,25.80
2023-01-10T18:21:39.532Z,25.80
2023-01-10T18:23:39.491Z,25.80
2023-01-10T18:25:39.425Z,25.84
2023-01-10T18:27:39.593Z,25.80
2023-01-10T18:29:39.422Z,25.77
2023-01-10T18:31:39.546Z,25.80
2023-01-10T18:33:39.564Z,25.80
2023-01-10T18:35:39.561Z,25.80
2023-01-10T18:37:39.584Z,25.82
2023-01-10T18:39:39.487Z,25.80
2023-01-10T18:41:39.587Z,25.80
2023-01-10T18:43:39.491Z,25.83
2023-01-10T18:45:39.481Z,25.81
2023-01-10T18:47:39.594Z,25.80
2023-01-10T18:49:39.573Z,25.80
2023-01-10T18:51:39.553Z,25.79
2023-01-10T18:53:39.562Z,25.88
2023-01-10T18:55:39.584Z,25.86
2023-01-10T18:57:39.588Z,25.83
2023-01-10T18:59:39.467Z,25.78
2023-01-10T19:01:39.567Z,25.79
2023-01-10T19:03:39.580Z,25.75
2023-01-10T19:05:39.548Z,25.80
2023-01-10T19:07:39.515Z,25.80
2023-01-10T19:09:39.568Z,25.80
2023-01-10T19:11:39.618Z,25.78
2023-01-10T19:13:39.631Z,25.80
2023-01-10T19:15:39.656Z,25.87
2023-01-10T19:17:39.543Z,25.80
2023-01-10T19:19:39.522Z,25.85
2023-01-10T19:21:39.633Z,25.80
2023-01-10T19:23:39.615Z,25.80
2023-01-10T19:25:39.612Z,25.79
2023-01-10T19:27:39.619Z,25.75
2023-01-10T19:29:39.604Z,25.86
2023-01-10T19:31:39.641Z,25.79
2023-01-10T19:33:39.543Z,25.78
2023-01-10T19:35:39.620Z,25.52
2023-01-10T19:37:39.660Z,25.80
2023-01-10T19:39:39.503Z,25.84
2023-01-10T19:41:39.641Z,25.80
2023-01-10T19:43:39.494Z,25.80
2023-01-10T19:45:39.537Z,25.80
2023-01-10T19:47:39.695Z,25.82
2023-01-10T19:49:39.540Z,25.82
2023-01-10T19:51:39.685Z,25.80
2023-01-10T19:53:39.562Z,25.79
2023-01-10T19:55:39.660Z,25.79
2023-01-10T19:57:39.664Z,25.78
2023-01-10T19:59:39.573Z,25.78
2023-01-10T20:01:39.703Z,25.85
2023-01-10T20:03:39.651Z,25.78
2023-01-10T20:05:39.660Z,25.80
2023-01-10T20:07:39.706Z,25.86
2023-01-10T20:09:39.661Z,25.85
2023-01-10T20:11:39.696Z,25.79
2023-01-10T20:13:39.715Z,25.83
2023-01-10T20:15:39.723Z,25.80
2023-01-10T20:17:39.646Z,25.80
2023-01-10T20:19:39.693Z,25.79
2023-01-10T20:21:39.707Z,25.85
2023-01-10T20:23:39.720Z,25.89
2023-01-10T20:25:39.663Z,25.80
2023-01-10T20:27:39.684Z,25.78
2023-01-10T20:29:39.731Z,25.83
2023-01-10T20:31:39.567Z,25.83
2023-01-10T20:33:39.764Z,25.80
2023-01-10T20:35:39.608Z,25.80
2023-01-10T20:37:39.611Z,25.86
2023-01-10T20:39:39.691Z,25.80
2023-01-10T20:41:39.685Z,25.80
2023-01-10T20:43:39.776Z,25.80
2023-01-10T20:45:39.671Z,25.83
2023-01-10T20:47:39.735Z,25.81
2023-01-10T20:49:39.804Z,25.65
2023-01-10T20:51:39.720Z,25.81
2023-01-10T20:53:39.695Z,25.79
2023-01-10T20:55:39.731Z,25.85
2023-01-10T20:57:39.687Z,25.80
2023-01-10T20:59:39.701Z,25.86
2023-01-10T21:01:39.836Z,25.80
2023-01-10T21:03:39.607Z,25.80
2023-01-10T21:05:39.757Z,25.80
2023-01-10T21:07:39.624Z,25.77
2023-01-10T21:09:39.691Z,25.80
2023-01-10T21:11:56.676Z,25.83
2023-01-10T21:13:39.779Z,25.78
2023-01-10T21:15:39.608Z,25.79
2023-01-10T21:17:39.770Z,25.79
2023-01-10T21:19:39.730Z,25.80
2023-01-10T21:21:39.787Z,25.80
2023-01-10T21:23:39.714Z,25.81
2023-01-10T21:25:39.875Z,25.79
2023-01-10T21:27:39.656Z,25.80
2023-01-10T21:29:39.672Z,25.86
2023-01-10T21:31:39.818Z,25.88
2023-01-10T21:33:39.729Z,25.88
2023-01-10T21:35:39.883Z,25.79
2023-01-10T21:37:39.665Z,25.83
2023-01-10T21:39:39.779Z,25.81
2023-01-10T21:41:39.680Z,25.80
2023-01-10T21:43:39.631Z,25.81
2023-01-10T21:45:39.687Z,25.85
2023-01-10T21:47:39.918Z,25.82
2023-01-10T21:49:39.864Z,25.80
2023-01-10T21:51:39.831Z,25.79
2023-01-10T21:53:39.732Z,25.81
2023-01-10T21:55:39.764Z,25.79
2023-01-10T21:57:39.805Z,25.80
2023-01-10T21:59:39.780Z,25.90
2023-01-10T22:01:39.766Z,25.80
2023-01-10T22:03:39.973Z,25.78
2023-01-10T22:05:39.738Z,25.80
2023-01-10T22:07:39.681Z,25.82
2023-01-10T22:09:39.798Z,25.89
2023-01-10T22:11:39.806Z,25.80
2023-01-10T22:13:39.857Z,25.72
2023-01-10T22:15:39.858Z,25.79
2023-01-10T22:17:39.692Z,25.80
2023-01-10T22:19:39.783Z,25.80
2023-01-10T22:21:39.722Z,25.86
2023-01-10T22:23:39.696Z,25.83
2023-01-10T22:25:39.842Z,25.79
2023-01-10T22:27:39.817Z,25.80
2023-01-10T22:29:39.863Z,25.83
2023-01-10T22:31:39.976Z,25.80
2023-01-10T22:33:39.963Z,25.79
2023-01-10T22:35:41.713Z,25.83
2023-01-10T22:37:39.805Z,25.80
2023-01-10T22:39:39.707Z,25.88
2023-01-10T22:41:39.929Z,25.81
2023-01-10T22:43:39.851Z,25.84
2023-01-10T22:45:39.894Z,25.81
2023-01-10T22:47:39.766Z,25.81
2023-01-10T22:49:39.707Z,25.80
2023-01-10T22:51:39.704Z,25.80
2023-01-10T22:53:39.894Z,25.85
2023-01-10T22:55:39.739Z,25.80
2023-01-10T22:57:47.244Z,25.83
2023-01-10T22:59:39.851Z,25.80
2023-01-10T23:01:39.728Z,25.80
2023-01-10T23:03:39.784Z,25.84
2023-01-10T23:05:39.858Z,25.80
2023-01-10T23:07:39.897Z,25.80
2023-01-10T23:09:39.863Z,25.79
2023-01-10T23:11:39.912Z,25.81
2023-01-10T23:13:39.811Z,25.89
2023-01-10T23:15:39.888Z,25.79
2023-01-10T23:17:39.766Z,25.80
2023-01-10T23:19:39.828Z,25.80
2023-01-10T23:21:39.830Z,25.80
2023-01-10T23:23:39.876Z,25.80
2023-01-10T23:25:39.860Z,25.81
2023-01-10T23:27:39.946Z,25.81
2023-01-10T23:29:40.017Z,25.82
2023-01-10T23:31:40.056Z,25.83
2023-01-10T23:33:39.829Z,25.81
2023-01-10T23:35:39.944Z,25.82
2023-01-10T23:37:39.942Z,25.81
2023-01-10T23:39:39.912Z,25.80
2023-01-10T23:41:39.829Z,25.89
2023-01-10T23:43:39.947Z,25.88
2023-01-10T23:45:39.976Z,25.79
2023-01-10T23:47:39.940Z,25.79
2023-01-10T23:49:39.918Z,25.84
2023-01-10T23:51:39.797Z,25.81
2023-01-10T23:53:39.794Z,25.80
2023-01-10T23:55:39.834Z,25.86
2023-01-10T23:57:39.831Z,25.89
2023-01-10T23:59:39.943Z,25.79
